Tiempo atmosférico en la estación meteorológica de Planoles, Girona (1149 m.)



Fecha
DESCASC
Temp. máxima en grados centígrados (hora)
DESCASC
Temp. mínima en grados centígrados (hora)
DESCASC
Temp. media en grados centígrados
DESCASC
Racha de viento máxima en m/sg (hora)
DESCASC
Velocidad máxima media en intervalos de 10 minutos(hora)
DESCASC
Precipitaciones diarias en mm
DESCASC
Precipitaciones de 00:00 a 06:00 en mm
DESCASC
Precipitaciones de 06:00 a 12:00 en mm
DESCASC
Precipitaciones de 12:00 a 18:00 en mm
DESCASC
Precipitaciones de 18:00 a 24:00 en mm
DESCASC
18-08-2019 31.4 (14:00) 14.6 (06:10) 23 10 (16:20) 5.56 (16:40) 0 0 0 0 0
17-08-2019 30.5 (16:40) 13.3 (06:50) 21.9 8.33 (14:20) 3.89 (13:40) 0 0 0 0 0
16-08-2019 27.2 (15:40) 11.8 (07:10) 19.5 9.17 (17:30) 5 (13:20) 0 0 0 0 0
15-08-2019 24.9 (15:20) 11.9 (00:00) 18.4 8.33 (13:20) 4.44 (13:30) 0 0 0 0 0
14-08-2019 25.6 (17:30) 9.1 (00:00) 17.4 8.61 (15:10) 4.17 (13:20) 0 0 0 0 0
13-08-2019 22 (16:40) 9.8 (00:00) 15.9 10.28 (13:20) 5.83 (13:50) 0 0 0 0 0
12-08-2019 22.6 (13:50) 14.7 (00:00) 18.7 8.89 (17:50) 3.89 (12:50) 0.6 0.4 0.2 0 0
11-08-2019 29 (15:50) 15.9 (00:00) 22.4 7.78 (17:10) 3.33 (12:00) 0 0 0 0 0
10-08-2019 30 (17:20) 16.9 (00:00) 23.4 8.61 (17:40) 4.44 (11:30) 0 0 0 0 0
09-08-2019 32.7 (16:30) 17 (00:00) 24.9 9.72 (16:30) 5.56 (11:20) 0 0 0 0 0
08-08-2019 30.3 (17:20) 16 (00:00) 23.1 8.89 (18:30) 4.17 (18:30) 0 0 0 0 0
07-08-2019 26.7 (15:30) 16.5 (00:00) 21.6 10.83 (12:50) 4.72 (12:50) 0.2 0 0 0.2 0
06-08-2019 30.6 (16:10) 15.6 (00:00) 23.1 9.72 (15:10) 4.72 (15:10) 0 0 0 0 0
05-08-2019 30.5 (16:50) 15.6 (00:00) 23.1 8.06 (14:50) 4.17 (18:40) 0 0 0 0 0
04-08-2019 29.5 (14:50) 15.2 (00:00) 22.3 8.61 (15:00) 4.44 (12:50) 0 0 0 0 0
03-08-2019 29.5 (16:30) 13.3 (00:00) 21.4 8.61 (17:50) 4.17 (14:30) 0 0 0 0 0
02-08-2019 28.3 (16:00) 14.7 (00:00) 21.5 9.44 (16:40) 5 (16:40) 0.6 0 0.6 0 0
01-08-2019 26.6 (16:50) 13.6 (00:00) 20.1 9.72 (15:00) 5 (14:40) 0 0 0 0 0
31-07-2019 26 (15:30) 11.2 (00:00) 18.6 11.39 (16:10) 5.28 (14:30) 0 0 0 0 0
30-07-2019 25 (17:30) 14.2 (00:00) 19.6 7.5 (16:50) 3.61 (12:50) 0 0 0 0 0
29-07-2019 27.1 (17:20) 10 (00:00) 18.6 7.5 (13:40) 4.17 (13:40) 0 0 0 0 0
28-07-2019 23.5 (17:20) 10.4 (00:00) 16.9 12.5 (03:10) 7.5 (03:10) 0 0 0 0 0
27-07-2019 19.2 (17:00) 13 (00:00) 16.1 10.56 (18:40) 5.28 (22:20) 29.2 14 10.6 4.4 0.2
26-07-2019 27.3 (17:20) 14.8 (00:00) 21 14.44 (18:00) 7.78 (18:00) 1.2 0 0 1 0.2
25-07-2019 31.1 (15:40) 16.7 (00:00) 23.9 8.33 (20:10) 3.61 (20:10) 0 0 0 0 0
24-07-2019 32.1 (15:50) 17.9 (00:00) 25 9.44 (16:30) 4.72 (15:00) 0 0 0 0 0
23-07-2019 32.8 (15:00) 17.3 (00:00) 25 8.06 (16:50) 3.89 (18:50) 0 0 0 0 0
22-07-2019 32.4 (16:40) 16.2 (00:00) 24.3 8.61 (15:40) 4.17 (15:50) 0 0 0 0 0
21-07-2019 30.4 (17:30) 15.2 (00:00) 22.8 7.5 (15:20) 3.89 (15:20) 0 0 0 0 0

Gráficas

Temp. máximas Temp. mínimas Temp. medias Precipitaciones Rachas de viento máximas Velocidades máximas media en intervalos de 10 minutos

Datos horarios

Fecha y hora oficial Temperatura (ºC) Velocidad del viento (km/h) Dirección del viento Racha (km/h) Dirección de racha Precipitación (mm) Presión (hPa) Tendencia (hPa) Humedad (%)
2019-08-19 23:00:00 18.9 0 Calma 5 Este 0 -- -- 79
2019-08-19 22:00:00 19.4 3 Este 8 Sudeste 0 -- -- 77
2019-08-19 21:00:00 20.1 3 Sudoeste 18 Este 0 -- -- 75
2019-08-19 20:00:00 21.5 9 Este 17 Este 0 -- -- 70
2019-08-19 19:00:00 23.4 8 Este 18 Este 0 -- -- 64
2019-08-19 18:00:00 23.6 5 Este 29 Este 0 -- -- 62
2019-08-19 17:00:00 24.2 7 Este 25 Este 0 -- -- 57
2019-08-19 16:00:00 25.7 14 Este 25 Este 0 -- -- 53
2019-08-19 15:00:00 26.1 9 Sudoeste 19 Sudoeste 0 -- -- 52
2019-08-19 14:00:00 24.9 8 Sur 24 Este 0 -- -- 55
2019-08-19 13:00:00 23.7 15 Este 28 Este 0 -- -- 60
2019-08-19 12:00:00 24.4 9 Este 20 Este 0 -- -- 57
2019-08-19 11:00:00 23 9 Este 18 Este 0 -- -- 60
2019-08-19 10:00:00 20.2 4 Sudeste 8 Este 0 -- -- 63
2019-08-19 09:00:00 16 3 Oeste 12 Noroeste 0 -- -- 74
2019-08-19 08:00:00 14.6 3 Oeste 9 Noroeste 0 -- -- 77
2019-08-19 07:00:00 14.5 4 Noroeste 13 Noroeste 0 -- -- 79
2019-08-19 06:00:00 15 0 Calma 12 Noroeste 0 -- -- 77
2019-08-19 05:00:00 15.5 0 Calma 10 Noroeste 0 -- -- 78
2019-08-19 04:00:00 16.2 5 Noroeste 12 Noroeste 0 -- -- 78
2019-08-19 03:00:00 16.7 6 Noroeste 12 Noroeste 0 -- -- 84
2019-08-19 02:00:00 17.7 6 Oeste 12 Noroeste 0 -- -- 86
2019-08-19 01:00:00 18.3 3 Oeste 6 Nordeste 0 -- -- 86
2019-08-19 00:00:00 19.8 2 Sudeste 10 Noroeste 0 -- -- 79
2019-08-18 23:00:00 21.2 2 Sur 7 Este 0 -- -- 79
2019-08-18 22:00:00 22.8 4 Este 13 Este 0 -- -- 74
2019-08-18 21:00:00 24 5 Sudeste 21 Este 0 -- -- 70
2019-08-18 20:00:00 25.2 7 Sur 22 Este 0 -- -- 64
2019-08-18 19:00:00 27.4 9 Sudeste 32 Oeste 0 -- -- 55
2019-08-18 18:00:00 29.9 12 Sur 30 Oeste 0 -- -- 42
2019-08-18 17:00:00 30 8 Oeste 36 Oeste 0 -- -- 42
2019-08-18 16:00:00 30.3 16 Sur 30 Sur 0 -- -- 43
2019-08-18 15:00:00 31.2 8 Sur 32 Sur 0 -- -- 38
2019-08-18 14:00:00 31.4 11 Sudoeste 27 Sudoeste 0 -- -- 33
2019-08-18 13:00:00 28.8 10 Este 24 Este 0 -- -- 47
2019-08-18 12:00:00 26.7 10 Este 21 Este 0 -- -- 50
2019-08-18 11:00:00 23.9 5 Este 12 Sur 0 -- -- 58
2019-08-18 10:00:00 21.1 4 Sudeste 8 Sudeste 0 -- -- 66
2019-08-18 09:00:00 18.2 4 Sudeste 9 Noroeste 0 -- -- 72
2019-08-18 08:00:00 15.3 4 Noroeste 13 Noroeste 0 -- -- 79
2019-08-18 07:00:00 14.7 4 Noroeste 8 Noroeste 0 -- -- 80
2019-08-18 06:00:00 14.8 0 Calma 4 Este 0 -- -- 77
2019-08-18 05:00:00 15.5 0 Calma 8 Noroeste 0 -- -- 74
2019-08-18 04:00:00 16 0 Calma 6 Oeste 0 -- -- 78
2019-08-18 03:00:00 16.9 4 Noroeste 9 Noroeste 0 -- -- 81
2019-08-18 02:00:00 17.8 4 Noroeste 13 Noroeste 0 -- -- 84
2019-08-18 01:00:00 18.3 5 Noroeste 11 Noroeste 0 -- -- 85
2019-08-18 00:00:00 18.9 5 Noroeste 11 Noroeste 0 -- -- 85
2019-08-17 23:00:00 20.4 4 Norte 9 Sur 0 -- -- 82
2019-08-17 22:00:00 22 4 Sudeste 13 Este 0 -- -- 77
2019-08-17 21:00:00 24.4 7 Este 15 Sudeste 0 -- -- 68
2019-08-17 20:00:00 26.4 5 Sur 18 Sur 0 -- -- 57
2019-08-17 19:00:00 28 7 Sur 25 Sudoeste 0 -- -- 48
2019-08-17 18:00:00 29.3 9 Sur 24 Sudoeste 0 -- -- 42
2019-08-17 17:00:00 30.1 7 Sur 30 Sudoeste 0 -- -- 37
2019-08-17 16:00:00 30.1 12 Sudoeste 26 Sudoeste 0 -- -- 38
2019-08-17 15:00:00 30.3 12 Sudoeste 30 Este 0 -- -- 38
2019-08-17 14:00:00 29.2 13 Sur 26 Sudeste 0 -- -- 38
2019-08-17 13:00:00 28.5 12 Este 25 Este 0 -- -- 45
2019-08-17 12:00:00 27.4 12 Este 22 Este 0 -- -- 46
2019-08-17 11:00:00 25.3 9 Sudeste 20 Este 0 -- -- 48
2019-08-17 10:00:00 21.2 3 Sudeste 6 Sudeste 0 -- -- 56
2019-08-17 09:00:00 17.6 2 Sudeste 5 Oeste 0 -- -- 61
2019-08-17 08:00:00 13.9 2 Oeste 10 Noroeste 0 -- -- 70
2019-08-17 07:00:00 13.7 5 Noroeste 10 Noroeste 0 -- -- 72
2019-08-17 06:00:00 14 2 Oeste 11 Noroeste 0 -- -- 75
2019-08-17 05:00:00 14.5 3 Noroeste 12 Noroeste 0 -- -- 80
2019-08-17 04:00:00 14.6 6 Noroeste 12 Noroeste 0 -- -- 78
2019-08-17 03:00:00 15 5 Noroeste 12 Noroeste 0 -- -- 73
2019-08-17 02:00:00 15.4 5 Noroeste 11 Noroeste 0 -- -- 72
2019-08-17 01:00:00 16 6 Noroeste 12 Noroeste 0 -- -- 73
2019-08-17 00:00:00 17.5 5 Noroeste 13 Noroeste 0 -- -- 72
2019-08-16 23:00:00 18.3 7 Noroeste 13 Noroeste 0 -- -- 72
2019-08-16 22:00:00 19.7 5 Noroeste 11 Oeste 0 -- -- 67
2019-08-16 21:00:00 22.1 0 Calma 11 Este 0 -- -- 59
2019-08-16 20:00:00 24.7 6 Este 22 Este 0 -- -- 51
2019-08-16 19:00:00 25.6 11 Este 28 Este 0 -- -- 49
2019-08-16 18:00:00 26.8 14 Este 33 Este 0 -- -- 45
2019-08-16 17:00:00 26.7 15 Este 27 Este 0 -- -- 47
2019-08-16 16:00:00 25.5 9 Sudeste 27 Este 0 -- -- 54
2019-08-16 15:00:00 25.9 15 Sudeste 31 Este 0 -- -- 53
2019-08-16 14:00:00 25.8 15 Este 27 Este 0 -- -- 54
2019-08-16 13:00:00 24.3 17 Este 27 Este 0 -- -- 56
2019-08-16 12:00:00 22.9 10 Sudeste 19 Sudeste 0 -- -- 59
2019-08-16 11:00:00 20.8 8 Este 18 Este 0 -- -- 62
2019-08-16 10:00:00 18.2 9 Sudeste 14 Este 0 -- -- 75
2019-08-16 09:00:00 14.6 2 Oeste 6 Este 0 -- -- 88
2019-08-16 08:00:00 12.1 0 Calma 4 Sudeste 0 -- -- 95
2019-08-16 07:00:00 11.9 0 Calma 7 Noroeste 0 -- -- 92
2019-08-16 06:00:00 12.5 0 Calma 5 Oeste 0 -- -- 92
2019-08-16 05:00:00 13.4 3 Norte 15 Noroeste 0 -- -- 90
2019-08-16 04:00:00 14.5 7 Noroeste 13 Noroeste 0 -- -- 88
2019-08-16 03:00:00 15.7 2 Nordeste 8 Norte 0 -- -- 87
2019-08-16 02:00:00 16.7 0 Calma 5 Sudoeste 0 -- -- 91
2019-08-16 01:00:00 16.9 2 Este 6 Este 0 -- -- 90
2019-08-16 00:00:00 17.2 0 Calma 7 Sudeste 0 -- -- 89
2019-08-15 23:00:00 17.5 4 Este 9 Este 0 -- -- 87
2019-08-15 22:00:00 18 4 Sudeste 13 Sudeste 0 -- -- 85
2019-08-15 21:00:00 19.1 6 Este 12 Este 0 -- -- 79
2019-08-15 20:00:00 20 6 Este 21 Este 0 -- -- 74
2019-08-15 19:00:00 20.7 14 Este 25 Nordeste 0 -- -- 68
2019-08-15 18:00:00 22.3 7 Este 26 Este 0 -- -- 59
2019-08-15 17:00:00 23.9 9 Este 24 Este 0 -- -- 56
2019-08-15 16:00:00 24.7 13 Este 28 Este 0 -- -- 54
2019-08-15 15:00:00 23.9 8 Sudeste 22 Sur 0 -- -- 55
2019-08-15 14:00:00 23.7 10 Sur 30 Este 0 -- -- 55
2019-08-15 13:00:00 23.4 10 Sudeste 24 Este 0 -- -- 58
2019-08-15 12:00:00 23.4 12 Este 21 Este 0 -- -- 56
2019-08-15 11:00:00 21.9 10 Este 21 Sudeste 0 -- -- 59
2019-08-15 10:00:00 18.6 5 Sudeste 8 Sudeste 0 -- -- 63
2019-08-15 09:00:00 15.5 0 Calma 4 Noroeste 0 -- -- 70
2019-08-15 08:00:00 12.4 2 Sudoeste 13 Norte 0 -- -- 77
2019-08-15 07:00:00 12 0 Calma 12 Noroeste 0 -- -- 80
2019-08-15 06:00:00 11.9 4 Noroeste 12 Noroeste 0 -- -- 80
2019-08-15 05:00:00 12.1 6 Noroeste 14 Noroeste 0 -- -- 80
2019-08-15 04:00:00 12 3 Oeste 8 Noroeste 0 -- -- 82
2019-08-15 03:00:00 12.9 3 Norte 10 Noroeste 0 -- -- 81
2019-08-15 02:00:00 13.5 7 Noroeste 13 Noroeste 0 -- -- 80
2019-08-15 01:00:00 14 4 Norte 8 Norte 0 -- -- 79
2019-08-15 00:00:00 14.9 2 Sudoeste 10 Oeste 0 -- -- 77
2019-08-14 23:00:00 16.1 4 Noroeste 10 Noroeste 0 -- -- 72
2019-08-14 22:00:00 17.4 2 Noroeste 9 Noroeste 0 -- -- 69
2019-08-14 21:00:00 19.9 4 Este 16 Sudeste 0 -- -- 61
2019-08-14 20:00:00 22.6 7 Sudeste 26 Este 0 -- -- 48
2019-08-14 19:00:00 24.4 9 Sudeste 24 Sudeste 0 -- -- 44
2019-08-14 18:00:00 24.3 5 Sudeste 25 Este 0 -- -- 42
2019-08-14 17:00:00 25.1 11 Este 24 Este 0 -- -- 42
2019-08-14 16:00:00 24 12 Este 31 Este 0 -- -- 44
2019-08-14 15:00:00 24.5 13 Este 28 Este 0 -- -- 44
2019-08-14 14:00:00 23.9 13 Este 24 Este 0 -- -- 46
2019-08-14 13:00:00 23.3 15 Este 28 Este 0 -- -- 48
2019-08-14 12:00:00 21.6 13 Este 23 Este 0 -- -- 52
2019-08-14 11:00:00 19.2 10 Este 19 Este 0 -- -- 56
2019-08-14 10:00:00 16.3 5 Sudeste 10 Sudeste 0 -- -- 69
2019-08-14 09:00:00 12.6 0 Calma 5 Este 0 -- -- 81
2019-08-14 08:00:00 9.7 4 Oeste 9 Noroeste 0 -- -- 88
2019-08-14 07:00:00 9.1 3 Oeste 9 Noroeste 0 -- -- 88
2019-08-14 06:00:00 9.4 0 Calma 8 Norte 0 -- -- 87
2019-08-14 05:00:00 9.6 3 Noroeste 7 Noroeste 0 -- -- 86
2019-08-14 04:00:00 9.7 3 Noroeste 6 Norte 0 -- -- 84
2019-08-14 03:00:00 9.9 0 Calma 6 Noroeste 0 -- -- 84
2019-08-14 02:00:00 10.8 4 Noroeste 8 Noroeste 0 -- -- 80
2019-08-14 01:00:00 11.4 0 Calma 7 Norte 0 -- -- 79
2019-08-14 00:00:00 12.2 0 Calma 6 Sudoeste 0 -- -- 76
2019-08-13 23:00:00 13.5 3 Norte 14 Noroeste 0 -- -- 75
2019-08-13 22:00:00 14.8 7 Noroeste 12 Noroeste 0 -- -- 70
2019-08-13 21:00:00 17.2 0 Calma 8 Sudeste 0 -- -- 65
2019-08-13 20:00:00 18.6 5 Sudeste 15 Sudeste 0 -- -- 59
2019-08-13 19:00:00 19.7 9 Este 28 Este 0 -- -- 53
2019-08-13 18:00:00 21.4 9 Este 22 Este 0 -- -- 42
2019-08-13 17:00:00 21.3 11 Este 29 Este 0 -- -- 44
2019-08-13 16:00:00 20.8 13 Este 29 Este 0 -- -- 47
2019-08-13 15:00:00 20.4 15 Este 31 Este 0 -- -- 49
2019-08-13 14:00:00 20.8 18 Este 37 Este 0 -- -- 51
2019-08-13 13:00:00 21.4 15 Este 31 Este 0 -- -- 53
2019-08-13 12:00:00 19.5 9 Este 22 Este 0 -- -- 54
2019-08-13 11:00:00 18.1 10 Este 17 Este 0 -- -- 59
2019-08-13 10:00:00 15.2 6 Sudeste 10 Sudeste 0 -- -- 64
2019-08-13 09:00:00 12.6 2 Nordeste 4 Sudeste 0 -- -- 73
2019-08-13 08:00:00 10.6 0 Calma 6 Nordeste 0 -- -- 80
2019-08-13 07:00:00 9.8 0 Calma 6 Sudeste 0 -- -- 81
2019-08-13 06:00:00 10 2 Oeste 5 Noroeste 0 -- -- 79
2019-08-13 05:00:00 10.1 0 Calma 5 Este 0 -- -- 79
2019-08-13 04:00:00 10.6 3 Sur 7 Oeste 0 -- -- 78
2019-08-13 03:00:00 11.2 3 Norte 9 Noroeste 0 -- -- 77
2019-08-13 02:00:00 12.2 4 Noroeste 8 Norte 0 -- -- 74
2019-08-13 01:00:00 13.7 5 Oeste 19 Noroeste 0 -- -- 70
2019-08-13 00:00:00 14.7 11 Noroeste 23 Noroeste 0 -- -- 64
2019-08-12 23:00:00 15.1 8 Noroeste 21 Oeste 0 -- -- 65
2019-08-12 22:00:00 15.2 3 Noroeste 8 Noroeste 0 -- -- 74
2019-08-12 21:00:00 17 2 Este 6 Sudeste 0 -- -- 71
2019-08-12 20:00:00 17.7 5 Este 15 Este 0 -- -- 69
2019-08-12 19:00:00 19.1 8 Sudeste 22 Este 0 -- -- 63
2019-08-12 18:00:00 20.9 12 Este 32 Este 0 -- -- 57
2019-08-12 17:00:00 21.4 9 Sudoeste 26 Sudoeste 0 -- -- 50
2019-08-12 16:00:00 21.8 9 Sur 22 Este 0 -- -- 56
2019-08-12 15:00:00 21.8 11 Este 24 Sudeste 0 -- -- 66
2019-08-12 14:00:00 22.5 12 Sur 26 Sudeste 0 -- -- 62
2019-08-12 13:00:00 21.8 11 Este 27 Este 0 -- -- 68
2019-08-12 12:00:00 19.4 8 Este 17 Este 0 -- -- 79
2019-08-12 11:00:00 18.6 7 Este 15 Este 0 -- -- 83
2019-08-12 10:00:00 17.5 5 Este 9 Sudeste 0 -- -- 87
2019-08-12 09:00:00 15.9 3 Nordeste 5 Sudeste 0 -- -- 93
2019-08-12 08:00:00 15.4 0 Calma 7 Este 0 -- -- 94
2019-08-12 07:00:00 15.3 3 Este 13 Este 0.2 -- -- 92
2019-08-12 06:00:00 16.7 7 Nordeste 31 Este 0.2 -- -- 84
2019-08-12 05:00:00 16.5 4 Oeste 8 Nordeste 0 -- -- 92
2019-08-12 04:00:00 16.5 0 Calma 7 Sur 0.2 -- -- 90
2019-08-12 03:00:00 16.8 4 Norte 8 Sudoeste 0 -- -- 89
2019-08-12 02:00:00 17.4 0 Calma 5 Norte 0 -- -- 85
2019-08-12 01:00:00 17.8 2 Sudoeste 8 Nordeste 0 -- -- 83
2019-08-12 00:00:00 18.1 3 Sudoeste 6 Norte 0 -- -- 82
2019-08-11 23:00:00 19.3 2 Este 5 Nordeste 0 -- -- 78
2019-08-11 22:00:00 20.9 4 Este 15 Sudeste 0 -- -- 71
2019-08-11 21:00:00 22.2 5 Este 23 Oeste 0 -- -- 66
2019-08-11 20:00:00 24.6 9 Sudoeste 19 Sudoeste 0 -- -- 47
2019-08-11 19:00:00 25.2 5 Oeste 19 Sudoeste 0 -- -- 45
2019-08-11 18:00:00 25.9 7 Oeste 28 Sudoeste 0 -- -- 45
2019-08-11 17:00:00 27 8 Sudoeste 27 Sudeste 0 -- -- 41
2019-08-11 16:00:00 28.7 12 Sur 26 Sudeste 0 -- -- 44
2019-08-11 15:00:00 27.5 7 Sur 21 Este 0 -- -- 46
2019-08-11 14:00:00 27.2 9 Sudeste 20 Sudoeste 0 -- -- 50
2019-08-11 13:00:00 24.8 6 Sudoeste 20 Oeste 0 -- -- 55
2019-08-11 12:00:00 24.7 12 Noroeste 23 Oeste 0 -- -- 56
2019-08-11 11:00:00 24.2 6 Este 12 Sudeste 0 -- -- 59
2019-08-11 10:00:00 21.9 4 Sudeste 9 Sur 0 -- -- 70
2019-08-11 09:00:00 19.3 4 Este 13 Sur 0 -- -- 76
2019-08-11 08:00:00 16.8 2 Este 9 Noroeste 0 -- -- 83
2019-08-11 07:00:00 16.1 5 Noroeste 9 Oeste 0 -- -- 86
2019-08-11 06:00:00 15.9 4 Noroeste 10 Norte 0 -- -- 87
2019-08-11 05:00:00 16.3 3 Noroeste 8 Noroeste 0 -- -- 86
2019-08-11 04:00:00 16.7 3 Noroeste 8 Oeste 0 -- -- 85
2019-08-11 03:00:00 17.3 3 Noroeste 10 Noroeste 0 -- -- 81
2019-08-11 02:00:00 17.9 7 Noroeste 12 Noroeste 0 -- -- 79
2019-08-11 01:00:00 18.1 5 Noroeste 13 Oeste 0 -- -- 78
2019-08-11 00:00:00 18.8 4 Noroeste 7 Noroeste 0 -- -- 76
2019-08-10 23:00:00 19.7 2 Oeste 5 Norte 0 -- -- 71
2019-08-10 22:00:00 21.5 3 Este 8 Este 0 -- -- 66
2019-08-10 21:00:00 23.3 4 Este 19 Este 0 -- -- 60
2019-08-10 20:00:00 25.9 8 Sudeste 24 Este 0 -- -- 51
2019-08-10 19:00:00 28.3 10 Sudoeste 24 Sudoeste 0 -- -- 36
2019-08-10 18:00:00 29.4 8 Oeste 31 Oeste 0 -- -- 37
2019-08-10 17:00:00 29.6 6 Sudoeste 26 Oeste 0 -- -- 36
2019-08-10 16:00:00 29.5 7 Sudoeste 24 Sudeste 0 -- -- 39
2019-08-10 15:00:00 29 8 Sur 23 Sudoeste 0 -- -- 41
2019-08-10 14:00:00 27.9 6 Este 23 Sudoeste 0 -- -- 48
2019-08-10 13:00:00 26.6 9 Sur 30 Sudeste 0 -- -- 53
2019-08-10 12:00:00 26.2 12 Este 28 Este 0 -- -- 56
2019-08-10 11:00:00 24.7 12 Este 22 Este 0 -- -- 61
2019-08-10 10:00:00 22.8 7 Sudeste 13 Sudeste 0 -- -- 69
2019-08-10 09:00:00 20.1 2 Sur 5 Sur 0 -- -- 69
2019-08-10 08:00:00 17 3 Oeste 8 Oeste 0 -- -- 75
2019-08-10 07:00:00 17.1 3 Noroeste 9 Noroeste 0 -- -- 73
2019-08-10 06:00:00 17.8 3 Noroeste 8 Noroeste 0 -- -- 70
2019-08-10 05:00:00 18.6 3 Sudeste 8 Noroeste 0 -- -- 68
2019-08-10 04:00:00 19.5 0 Calma 10 Noroeste 0 -- -- 63
2019-08-10 03:00:00 19.8 5 Noroeste 9 Oeste 0 -- -- 61
2019-08-10 02:00:00 19.7 3 Noroeste 8 Noroeste 0 -- -- 59
2019-08-10 01:00:00 20.4 2 Sur 11 Noroeste 0 -- -- 57
2019-08-10 00:00:00 21.2 4 Noroeste 14 Oeste 0 -- -- 52
2019-08-09 23:00:00 22.4 0 Calma 12 Noroeste 0 -- -- 49
2019-08-09 22:00:00 24.8 3 Noroeste 16 Noroeste 0 -- -- 43
2019-08-09 21:00:00 26.9 8 Noroeste 27 Oeste 0 -- -- 37
2019-08-09 20:00:00 30 16 Sudoeste 31 Sudoeste 0 -- -- 30
2019-08-09 19:00:00 31.6 14 Sudoeste 29 Oeste 0 -- -- 28
2019-08-09 18:00:00 32.5 15 Sudoeste 29 Oeste 0 -- -- 29
2019-08-09 17:00:00 32.4 14 Oeste 35 Oeste 0 -- -- 30
2019-08-09 16:00:00 32.6 11 Oeste 33 Oeste 0 -- -- 28
2019-08-09 15:00:00 32.2 17 Oeste 27 Sudoeste 0 -- -- 27
2019-08-09 14:00:00 31.2 12 Sudoeste 33 Sudoeste 0 -- -- 31
2019-08-09 13:00:00 30.9 17 Oeste 33 Noroeste 0 -- -- 32
2019-08-09 12:00:00 30.4 13 Oeste 33 Oeste 0 -- -- 33
2019-08-09 11:00:00 28.9 15 Oeste 33 Sudoeste 0 -- -- 38
2019-08-09 10:00:00 24.9 4 Sudeste 8 Este 0 -- -- 56
2019-08-09 09:00:00 21.3 2 Sudeste 4 Sudeste 0 -- -- 67
2019-08-09 08:00:00 17.8 3 Este 6 Nordeste 0 -- -- 72
2019-08-09 07:00:00 17.7 2 Este 6 Nordeste 0 -- -- 72
2019-08-09 06:00:00 18.2 4 Noroeste 12 Noroeste 0 -- -- 70
2019-08-09 05:00:00 17.7 3 Sudeste 8 Noroeste 0 -- -- 73
2019-08-09 04:00:00 17.2 3 Este 5 Nordeste 0 -- -- 77
2019-08-09 03:00:00 17.4 0 Calma 6 Noroeste 0 -- -- 76
2019-08-09 02:00:00 17.9 2 Oeste 10 Noroeste 0 -- -- 74
2019-08-09 01:00:00 18.6 3 Noroeste 9 Norte 0 -- -- 74
2019-08-09 00:00:00 19.4 5 Noroeste 10 Noroeste 0 -- -- 75
2019-08-08 23:00:00 21 6 Norte 13 Noroeste 0 -- -- 68
2019-08-08 22:00:00 22.6 0 Calma 7 Nordeste 0 -- -- 67
2019-08-08 21:00:00 25.1 4 Este 9 Norte 0 -- -- 57
2019-08-08 20:00:00 27 6 Noroeste 19 Oeste 0 -- -- 47
2019-08-08 19:00:00 28.5 13 Sudoeste 32 Oeste 0 -- -- 43
2019-08-08 18:00:00 29.2 8 Oeste 26 Este 0 -- -- 42
2019-08-08 17:00:00 29.6 8 Sudeste 22 Sudeste 0 -- -- 40
2019-08-08 16:00:00 29.7 8 Este 21 Sudeste 0 -- -- 40
2019-08-08 15:00:00 28.9 11 Sudeste 27 Este 0 -- -- 41
2019-08-08 14:00:00 27.9 12 Este 24 Este 0 -- -- 44
2019-08-08 13:00:00 26.7 11 Sudeste 23 Este 0 -- -- 49
2019-08-08 12:00:00 26.9 10 Sudeste 26 Este 0 -- -- 51
2019-08-08 11:00:00 25.4 4 Sudeste 15 Sur 0 -- -- 46
2019-08-08 10:00:00 23 4 Este 9 Sudeste 0 -- -- 58
2019-08-08 09:00:00 20.1 3 Sudeste 8 Este 0 -- -- 66
2019-08-08 08:00:00 18.1 4 Sudoeste 18 Noroeste 0 -- -- 71
2019-08-08 07:00:00 18.5 6 Noroeste 15 Oeste 0 -- -- 67
2019-08-08 06:00:00 16.8 0 Calma 6 Noroeste 0 -- -- 77
2019-08-08 05:00:00 16.1 0 Calma 7 Este 0 -- -- 83
2019-08-08 04:00:00 16.7 3 Este 5 Este 0 -- -- 87
2019-08-08 03:00:00 17 0 Calma 5 Norte 0 -- -- 85
2019-08-08 02:00:00 17.5 4 Oeste 9 Oeste 0 -- -- 83
2019-08-08 01:00:00 17.7 3 Noroeste 7 Noroeste 0 -- -- 84
2019-08-08 00:00:00 17.7 3 Noroeste 6 Nordeste 0 -- -- 84
2019-08-07 23:00:00 18.3 4 Sudoeste 9 Oeste 0 -- -- 80
2019-08-07 22:00:00 19.4 0 Calma 16 Sudeste 0 -- -- 78
2019-08-07 21:00:00 21.2 7 Noroeste 21 Oeste 0 -- -- 57
2019-08-07 20:00:00 22.6 5 Noroeste 23 Sudoeste 0 -- -- 59
2019-08-07 19:00:00 22.3 9 Oeste 23 Oeste 0 -- -- 62
2019-08-07 18:00:00 22.6 8 Noroeste 25 Noroeste 0.2 -- -- 65
2019-08-07 17:00:00 23.9 6 Nordeste 27 Este 0 -- -- 66
2019-08-07 16:00:00 25.5 6 Norte 26 Sudoeste 0 -- -- 59
2019-08-07 15:00:00 25.9 11 Sur 26 Sur 0 -- -- 55
2019-08-07 14:00:00 25.4 10 Sur 35 Este 0 -- -- 59
2019-08-07 13:00:00 24.9 10 Este 39 Este 0 -- -- 64
2019-08-07 12:00:00 25.6 12 Este 24 Este 0 -- -- 62
2019-08-07 11:00:00 23.8 9 Sudeste 15 Sudeste 0 -- -- 68
2019-08-07 10:00:00 21.4 6 Este 9 Este 0 -- -- 77
2019-08-07 09:00:00 19.6 2 Sur 9 Oeste 0 -- -- 78
2019-08-07 08:00:00 16.5 2 Oeste 9 Noroeste 0 -- -- 86
2019-08-07 07:00:00 16.6 5 Noroeste 9 Noroeste 0 -- -- 86
2019-08-07 06:00:00 16.7 3 Noroeste 9 Norte 0 -- -- 86
2019-08-07 05:00:00 17.5 0 Calma 6 Norte 0 -- -- 82
2019-08-07 04:00:00 18.2 0 Calma 9 Norte 0 -- -- 79
2019-08-07 03:00:00 18.5 4 Noroeste 8 Noroeste 0 -- -- 79
2019-08-07 02:00:00 19 3 Norte 6 Noroeste 0 -- -- 76
2019-08-07 01:00:00 19.5 6 Oeste 13 Noroeste 0 -- -- 74
2019-08-07 00:00:00 20.4 6 Noroeste 13 Noroeste 0 -- -- 70
2019-08-06 23:00:00 21.1 4 Noroeste 10 Oeste 0 -- -- 67
2019-08-06 22:00:00 22.4 5 Noroeste 9 Oeste 0 -- -- 62
2019-08-06 21:00:00 25.5 2 Este 19 Nordeste 0 -- -- 53
2019-08-06 20:00:00 28.1 10 Este 18 Este 0 -- -- 44
2019-08-06 19:00:00 28.1 5 Noroeste 21 Oeste 0 -- -- 43
2019-08-06 18:00:00 29.1 10 Este 23 Sudoeste 0 -- -- 42
2019-08-06 17:00:00 29.5 10 Sudoeste 26 Nordeste 0 -- -- 40
2019-08-06 16:00:00 30.4 5 Nordeste 35 Este 0 -- -- 40
2019-08-06 15:00:00 30 16 Este 34 Este 0 -- -- 41
2019-08-06 14:00:00 29.2 10 Este 23 Este 0 -- -- 42
2019-08-06 13:00:00 28.3 12 Este 26 Este 0 -- -- 46
2019-08-06 12:00:00 27 14 Este 24 Este 0 -- -- 49
2019-08-06 11:00:00 25.6 9 Este 17 Este 0 -- -- 51
2019-08-06 10:00:00 22.4 3 Sudeste 6 Este 0 -- -- 59
2019-08-06 09:00:00 19.5 0 Calma 8 Oeste 0 -- -- 65
2019-08-06 08:00:00 16.3 5 Noroeste 15 Noroeste 0 -- -- 68
2019-08-06 07:00:00 15.8 5 Noroeste 15 Noroeste 0 -- -- 67
2019-08-06 06:00:00 15.7 8 Noroeste 17 Noroeste 0 -- -- 64
2019-08-06 05:00:00 16 4 Noroeste 9 Noroeste 0 -- -- 66
2019-08-06 04:00:00 16.3 3 Noroeste 8 Noroeste 0 -- -- 67
2019-08-06 03:00:00 17.2 6 Noroeste 12 Oeste 0 -- -- 68
2019-08-06 02:00:00 17.7 6 Noroeste 13 Noroeste 0 -- -- 69
2019-08-06 01:00:00 18.4 6 Noroeste 14 Oeste 0 -- -- 68
2019-08-06 00:00:00 19.1 8 Noroeste 15 Noroeste 0 -- -- 66
2019-08-05 23:00:00 19.7 8 Noroeste 15 Noroeste 0 -- -- 63
2019-08-05 22:00:00 22 2 Norte 8 Este 0 -- -- 56
2019-08-05 21:00:00 24.9 5 Nordeste 14 Sudeste 0 -- -- 48
2019-08-05 20:00:00 27.4 9 Sur 23 Sudeste 0 -- -- 41
2019-08-05 19:00:00 29.3 8 Sudoeste 28 Oeste 0 -- -- 37
2019-08-05 18:00:00 30 15 Oeste 27 Oeste 0 -- -- 35
2019-08-05 17:00:00 30.5 12 Sudoeste 25 Sur 0 -- -- 36
2019-08-05 16:00:00 30.1 7 Sur 24 Oeste 0 -- -- 37
2019-08-05 15:00:00 29.4 9 Sur 29 Sudeste 0 -- -- 39
2019-08-05 14:00:00 29.1 11 Este 27 Este 0 -- -- 40
2019-08-05 13:00:00 28.2 12 Este 25 Este 0 -- -- 45
2019-08-05 12:00:00 26.9 8 Este 17 Sudeste 0 -- -- 50
2019-08-05 11:00:00 24.9 6 Este 15 Este 0 -- -- 54
2019-08-05 10:00:00 21.9 2 Sudoeste 4 Sudoeste 0 -- -- 61
2019-08-05 09:00:00 18.6 0 Calma 4 Este 0 -- -- 73
2019-08-05 08:00:00 16.3 3 Oeste 9 Noroeste 0 -- -- 79
2019-08-05 07:00:00 15.8 5 Noroeste 12 Noroeste 0 -- -- 80
2019-08-05 06:00:00 16 7 Noroeste 12 Oeste 0 -- -- 79
2019-08-05 05:00:00 15.9 3 Noroeste 8 Noroeste 0 -- -- 78
2019-08-05 04:00:00 16.4 3 Oeste 14 Oeste 0 -- -- 77
2019-08-05 03:00:00 17 5 Noroeste 11 Noroeste 0 -- -- 74
2019-08-05 02:00:00 17.4 3 Noroeste 13 Noroeste 0 -- -- 76
2019-08-05 01:00:00 17.8 6 Noroeste 13 Noroeste 0 -- -- 78
2019-08-05 00:00:00 18.4 7 Noroeste 15 Noroeste 0 -- -- 78
2019-08-04 23:00:00 19 5 Noroeste 11 Noroeste 0 -- -- 76
2019-08-04 22:00:00 20.3 6 Noroeste 10 Noroeste 0 -- -- 71
2019-08-04 21:00:00 22.6 3 Norte 6 Noroeste 0 -- -- 65
2019-08-04 20:00:00 24.9 3 Este 17 Sudeste 0 -- -- 57
2019-08-04 19:00:00 25.6 7 Sudeste 24 Sudeste 0 -- -- 53
2019-08-04 18:00:00 26.7 5 Sudeste 24 Sudeste 0 -- -- 51
2019-08-04 17:00:00 28.2 11 Este 23 Este 0 -- -- 47
2019-08-04 16:00:00 27.8 9 Este 30 Este 0 -- -- 43
2019-08-04 15:00:00 29.2 12 Este 31 Este 0 -- -- 40
2019-08-04 14:00:00 29.1 14 Este 25 Este 0 -- -- 41
2019-08-04 13:00:00 28 15 Este 26 Este 0 -- -- 43
2019-08-04 12:00:00 27.2 10 Este 19 Este 0 -- -- 47
2019-08-04 11:00:00 24.7 6 Sudeste 10 Sudeste 0 -- -- 54
2019-08-04 10:00:00 22.1 0 Calma 4 Sudeste 0 -- -- 61
2019-08-04 09:00:00 18.6 0 Calma 8 Noroeste 0 -- -- 70
2019-08-04 08:00:00 15.6 3 Noroeste 12 Noroeste 0 -- -- 77
2019-08-04 07:00:00 15.2 6 Noroeste 13 Noroeste 0 -- -- 77
2019-08-04 06:00:00 15.3 4 Noroeste 9 Norte 0 -- -- 77
2019-08-04 05:00:00 15.7 0 Calma 8 Noroeste 0 -- -- 77
2019-08-04 04:00:00 17 7 Noroeste 13 Noroeste 0 -- -- 72
2019-08-04 03:00:00 17.2 6 Noroeste 19 Noroeste 0 -- -- 72
2019-08-04 02:00:00 17.4 9 Noroeste 17 Noroeste 0 -- -- 72
2019-08-04 01:00:00 17.1 10 Noroeste 19 Noroeste 0 -- -- 74
2019-08-04 00:00:00 17.7 4 Noroeste 15 Noroeste 0 -- -- 73
2019-08-03 23:00:00 18.9 9 Noroeste 14 Noroeste 0 -- -- 70
2019-08-03 22:00:00 20.4 8 Noroeste 14 Noroeste 0 -- -- 68
2019-08-03 21:00:00 23.1 2 Nordeste 18 Este 0 -- -- 58
2019-08-03 20:00:00 24.9 13 Este 24 Este 0 -- -- 53
2019-08-03 19:00:00 26.3 9 Sudeste 27 Este 0 -- -- 50
2019-08-03 18:00:00 28.2 13 Este 31 Este 0 -- -- 44
2019-08-03 17:00:00 29.1 8 Sudeste 22 Este 0 -- -- 38
2019-08-03 16:00:00 28.8 12 Este 27 Este 0 -- -- 41
2019-08-03 15:00:00 27.6 11 Este 29 Este 0 -- -- 43
2019-08-03 14:00:00 27 12 Este 26 Este 0 -- -- 46
2019-08-03 13:00:00 26.7 11 Este 24 Este 0 -- -- 49
2019-08-03 12:00:00 24.5 13 Este 23 Este 0 -- -- 56
2019-08-03 11:00:00 22.6 6 Sudeste 15 Nordeste 0 -- -- 62
2019-08-03 10:00:00 20.3 5 Este 10 Sudeste 0 -- -- 67
2019-08-03 09:00:00 17.4 0 Calma 5 Nordeste 0 -- -- 74
2019-08-03 08:00:00 14 4 Este 7 Oeste 0 -- -- 85
2019-08-03 07:00:00 13.4 2 Noroeste 5 Oeste 0 -- -- 86
2019-08-03 06:00:00 13.4 3 Noroeste 9 Noroeste 0 -- -- 85
2019-08-03 05:00:00 13.8 4 Noroeste 8 Norte 0 -- -- 85
2019-08-03 04:00:00 14.4 2 Noroeste 13 Oeste 0 -- -- 83
2019-08-03 03:00:00 14.8 4 Noroeste 12 Noroeste 0 -- -- 83
2019-08-03 02:00:00 15.8 2 Sudoeste 13 Oeste 0 -- -- 81
2019-08-03 01:00:00 16.4 6 Noroeste 14 Noroeste 0 -- -- 79
2019-08-03 00:00:00 16.7 4 Noroeste 9 Oeste 0 -- -- 78
2019-08-02 23:00:00 17.4 2 Oeste 8 Noroeste 0 -- -- 76
2019-08-02 22:00:00 18.7 2 Oeste 10 Oeste 0 -- -- 72
2019-08-02 21:00:00 21 3 Noroeste 7 Sur 0 -- -- 65
2019-08-02 20:00:00 22.9 5 Sur 10 Este 0 -- -- 56
2019-08-02 19:00:00 24.3 6 Sudeste 20 Sudeste 0 -- -- 52
2019-08-02 18:00:00 24.4 11 Este 30 Este 0 -- -- 53
2019-08-02 17:00:00 26.6 13 Este 34 Sudeste 0 -- -- 44
2019-08-02 16:00:00 28.3 13 Este 33 Este 0 -- -- 42
2019-08-02 15:00:00 27.7 12 Este 32 Este 0 -- -- 43
2019-08-02 14:00:00 26.8 13 Sudeste 30 Sudeste 0 -- -- 47
2019-08-02 13:00:00 25.5 9 Sudeste 19 Este 0 -- -- 52
2019-08-02 12:00:00 23.6 9 Sudeste 18 Este 0 -- -- 55
2019-08-02 11:00:00 21.5 5 Sudeste 12 Sudeste 0 -- -- 62
2019-08-02 10:00:00 19.6 4 Este 7 Nordeste 0 -- -- 64
2019-08-02 09:00:00 16.5 0 Calma 8 Noroeste 0 -- -- 85
2019-08-02 08:00:00 14.8 4 Oeste 12 Nordeste 0.2 -- -- 91
2019-08-02 07:00:00 14.7 5 Norte 13 Nordeste 0.4 -- -- 91
2019-08-02 06:00:00 15 0 Calma 13 Norte 0 -- -- 85
2019-08-02 05:00:00 14.9 6 Noroeste 15 Nordeste 0 -- -- 86
2019-08-02 04:00:00 14.9 3 Oeste 7 Noroeste 0 -- -- 84
2019-08-02 03:00:00 14.9 5 Norte 11 Nordeste 0 -- -- 82
2019-08-02 02:00:00 15.1 3 Este 10 Noroeste 0 -- -- 76
2019-08-02 01:00:00 15.4 8 Noroeste 13 Noroeste 0 -- -- 73
2019-08-02 00:00:00 16.1 6 Noroeste 15 Noroeste 0 -- -- 71
2019-08-01 23:00:00 16.8 8 Noroeste 13 Noroeste 0 -- -- 69
2019-08-01 22:00:00 18.3 3 Nordeste 11 Noroeste 0 -- -- 66
2019-08-01 21:00:00 21.2 5 Noroeste 9 Noroeste 0 -- -- 56
2019-08-01 20:00:00 24.2 5 Este 15 Este 0 -- -- 47
2019-08-01 19:00:00 25.1 6 Este 15 Este 0 -- -- 46
2019-08-01 18:00:00 25.5 10 Sudeste 33 Este 0 -- -- 44
2019-08-01 17:00:00 26.4 14 Este 30 Este 0 -- -- 44
2019-08-01 16:00:00 25.6 14 Este 31 Este 0 -- -- 48
2019-08-01 15:00:00 25.5 14 Este 35 Este 0 -- -- 47
2019-08-01 14:00:00 26.1 14 Este 31 Este 0 -- -- 50
2019-08-01 13:00:00 24.4 8 Este 22 Este 0 -- -- 59
2019-08-01 12:00:00 24.5 14 Este 28 Sudeste 0 -- -- 59
2019-08-01 11:00:00 23.7 14 Este 26 Este 0 -- -- 59
2019-08-01 10:00:00 21.4 3 Sudeste 6 Sur 0 -- -- 66
2019-08-01 09:00:00 17.9 3 Oeste 12 Noroeste 0 -- -- 76
2019-08-01 08:00:00 14.8 4 Norte 13 Noroeste 0 -- -- 84
2019-08-01 07:00:00 13.9 5 Noroeste 13 Noroeste 0 -- -- 88
2019-08-01 06:00:00 13.7 3 Oeste 8 Sudoeste 0 -- -- 89
2019-08-01 05:00:00 14.1 3 Noroeste 9 Noroeste 0 -- -- 85
2019-08-01 04:00:00 14.4 4 Noroeste 5 Noroeste 0 -- -- 88
2019-08-01 03:00:00 14.8 0 Calma 16 Oeste 0 -- -- 88
2019-08-01 02:00:00 15.4 3 Noroeste 15 Oeste 0 -- -- 88
2019-08-01 01:00:00 15.6 9 Noroeste 17 Oeste 0 -- -- 87
2019-08-01 00:00:00 16.3 6 Noroeste 11 Noroeste 0 -- -- 84
2019-07-31 23:00:00 17.2 3 Noroeste 7 Noroeste 0 -- -- 82
2019-07-31 22:00:00 18.9 3 Sudeste 5 Sur 0 -- -- 78
2019-07-31 21:00:00 21 2 Sur 14 Este 0 -- -- 69
2019-07-31 20:00:00 22.3 7 Este 24 Sudeste 0 -- -- 64
2019-07-31 19:00:00 24.3 9 Sudeste 26 Este 0 -- -- 55
2019-07-31 18:00:00 25.3 14 Este 29 Este 0 -- -- 50
2019-07-31 17:00:00 25.7 13 Este 41 Este 0 -- -- 48
2019-07-31 16:00:00 25.7 13 Este 33 Este 0 -- -- 44
2019-07-31 15:00:00 25.3 13 Este 35 Este 0 -- -- 48
2019-07-31 14:00:00 25.3 14 Este 28 Este 0 -- -- 49
2019-07-31 13:00:00 23.5 9 Sudeste 23 Este 0 -- -- 51
2019-07-31 12:00:00 22.3 10 Este 23 Este 0 -- -- 57
2019-07-31 11:00:00 20.2 13 Este 24 Este 0 -- -- 64
2019-07-31 10:00:00 18 6 Sudeste 14 Este 0 -- -- 75
2019-07-31 09:00:00 14.6 0 Calma 3 Oeste 0 -- -- 74
2019-07-31 08:00:00 11.6 0 Calma 8 Noroeste 0 -- -- 82
2019-07-31 07:00:00 11.2 2 Noroeste 8 Norte 0 -- -- 87
2019-07-31 06:00:00 11.8 0 Calma 5 Oeste 0 -- -- 89
2019-07-31 05:00:00 12.5 0 Calma 9 Noroeste 0 -- -- 87
2019-07-31 04:00:00 13 5 Noroeste 11 Noroeste 0 -- -- 87
2019-07-31 03:00:00 13.2 5 Noroeste 11 Noroeste 0 -- -- 90
2019-07-31 02:00:00 14 3 Norte 8 Noroeste 0 -- -- 90
2019-07-31 01:00:00 15.4 4 Noroeste 6 Norte 0 -- -- 89
2019-07-31 00:00:00 16.4 0 Calma 6 Este 0 -- -- 85
2019-07-30 23:00:00 17.1 4 Este 10 Sudeste 0 -- -- 82
2019-07-30 22:00:00 18.3 0 Calma 10 Este 0 -- -- 77
2019-07-30 21:00:00 20.4 3 Sur 9 Este 0 -- -- 70
2019-07-30 20:00:00 22.6 5 Sur 22 Oeste 0 -- -- 54
2019-07-30 19:00:00 24.4 6 Sudoeste 26 Sudoeste 0 -- -- 44
2019-07-30 18:00:00 24.6 10 Sur 27 Sudoeste 0 -- -- 46
2019-07-30 17:00:00 24.8 10 Sudoeste 27 Sudoeste 0 -- -- 48
2019-07-30 16:00:00 22.8 9 Sudoeste 23 Oeste 0 -- -- 54
2019-07-30 15:00:00 22.6 6 Sudoeste 16 Este 0 -- -- 58
2019-07-30 14:00:00 23.1 10 Este 25 Este 0 -- -- 63
2019-07-30 13:00:00 23.2 9 Este 23 Este 0 -- -- 58
2019-07-30 12:00:00 21.6 9 Este 19 Este 0 -- -- 64
2019-07-30 11:00:00 20.6 3 Sur 13 Este 0 -- -- 63
2019-07-30 10:00:00 20.2 8 Sudeste 15 Sudeste 0 -- -- 65
2019-07-30 09:00:00 16.8 0 Calma 5 Noroeste 0 -- -- 81
2019-07-30 08:00:00 14.7 4 Noroeste 10 Noroeste 0 -- -- 83
2019-07-30 07:00:00 14.5 4 Noroeste 10 Noroeste 0 -- -- 84
2019-07-30 06:00:00 14.8 2 Noroeste 6 Sudoeste 0 -- -- 90
2019-07-30 05:00:00 16 2 Este 8 Sudoeste 0 -- -- 89
2019-07-30 04:00:00 16.3 0 Calma 4 Oeste 0 -- -- 89
2019-07-30 03:00:00 16.5 0 Calma 8 Noroeste 0 -- -- 88
2019-07-30 02:00:00 16.7 0 Calma 5 Sudeste 0 -- -- 87
2019-07-30 01:00:00 17.1 0 Calma 8 Noroeste 0 -- -- 84
2019-07-30 00:00:00 17.7 5 Noroeste 9 Norte 0 -- -- 81
2019-07-29 23:00:00 18.4 4 Noroeste 9 Noroeste 0 -- -- 77
2019-07-29 22:00:00 19.9 0 Calma 8 Noroeste 0 -- -- 70
2019-07-29 21:00:00 22.3 4 Sudeste 15 Este 0 -- -- 61
2019-07-29 20:00:00 25.2 6 Este 26 Este 0 -- -- 46
2019-07-29 19:00:00 26.5 11 Este 23 Este 0 -- -- 36
2019-07-29 18:00:00 26.9 9 Sudeste 23 Este 0 -- -- 37
2019-07-29 17:00:00 26.9 8 Este 25 Este 0 -- -- 37
2019-07-29 16:00:00 26.8 8 Este 19 Este 0 -- -- 37
2019-07-29 15:00:00 25.8 8 Este 23 Este 0 -- -- 44
2019-07-29 14:00:00 24.7 12 Este 27 Este 0 -- -- 51
2019-07-29 13:00:00 23.5 12 Este 24 Este 0 -- -- 55
2019-07-29 12:00:00 22.4 11 Este 24 Este 0 -- -- 51
2019-07-29 11:00:00 20.8 13 Este 23 Este 0 -- -- 53
2019-07-29 10:00:00 18.2 6 Sudeste 12 Sudeste 0 -- -- 63
2019-07-29 09:00:00 15.2 3 Sudeste 8 Sudeste 0 -- -- 76
2019-07-29 08:00:00 11.9 3 Este 12 Sudeste 0 -- -- 84
2019-07-29 07:00:00 10.3 3 Este 8 Nordeste 0 -- -- 90
2019-07-29 06:00:00 10.1 0 Calma 6 Nordeste 0 -- -- 91
2019-07-29 05:00:00 10.6 2 Norte 5 Este 0 -- -- 90
2019-07-29 04:00:00 11.5 2 Noroeste 15 Noroeste 0 -- -- 88
2019-07-29 03:00:00 12.4 8 Noroeste 13 Noroeste 0 -- -- 86
2019-07-29 02:00:00 12.9 3 Noroeste 9 Noroeste 0 -- -- 87
2019-07-29 01:00:00 14.2 3 Norte 6 Noroeste 0 -- -- 85
2019-07-29 00:00:00 15.8 3 Sudeste 12 Sudeste 0 -- -- 79
2019-07-28 23:00:00 16.9 2 Nordeste 7 Este 0 -- -- 75
2019-07-28 22:00:00 17.6 4 Este 13 Este 0 -- -- 72
2019-07-28 21:00:00 18.7 7 Este 24 Este 0 -- -- 67
2019-07-28 20:00:00 21 12 Este 25 Este 0 -- -- 57
2019-07-28 19:00:00 22.9 12 Este 28 Este 0 -- -- 46
2019-07-28 18:00:00 23.2 14 Este 26 Este 0 -- -- 41
2019-07-28 17:00:00 23.3 13 Este 26 Este 0 -- -- 42
2019-07-28 16:00:00 23.1 6 Sudoeste 26 Este 0 -- -- 43
2019-07-28 15:00:00 22 15 Este 33 Este 0 -- -- 46
2019-07-28 14:00:00 22.1 10 Sudeste 21 Sudeste 0 -- -- 44
2019-07-28 13:00:00 21.2 9 Este 27 Este 0 -- -- 42
2019-07-28 12:00:00 20.1 8 Sudeste 20 Oeste 0 -- -- 44
2019-07-28 11:00:00 19.2 3 Noroeste 33 Oeste 0 -- -- 38
2019-07-28 10:00:00 17 16 Oeste 32 Sudoeste 0 -- -- 42
2019-07-28 09:00:00 14.9 4 Norte 9 Noroeste 0 -- -- 53
2019-07-28 08:00:00 11.8 3 Este 11 Noroeste 0 -- -- 65
2019-07-28 07:00:00 11.3 5 Nordeste 10 Oeste 0 -- -- 60
2019-07-28 06:00:00 11 3 Este 12 Norte 0 -- -- 69
2019-07-28 05:00:00 12.5 6 Noroeste 16 Norte 0 -- -- 60
2019-07-28 04:00:00 14.1 18 Oeste 45 Oeste 0 -- -- 56
2019-07-28 03:00:00 14.4 21 Oeste 41 Oeste 0 -- -- 59
2019-07-28 02:00:00 13.9 10 Noroeste 21 Oeste 0 -- -- 62
2019-07-28 01:00:00 15.1 18 Oeste 30 Sudoeste 0 -- -- 60
2019-07-28 00:00:00 15.1 13 Oeste 27 Noroeste 0 -- -- 62
2019-07-27 23:00:00 14.9 10 Noroeste 36 Oeste 0 -- -- 66
2019-07-26 12:00:00 26.4 12 Este 22 Este 0 -- -- 47
2019-07-26 11:00:00 25.1 8 Sudeste 15 Sudeste 0 -- -- 49
2019-07-26 10:00:00 22.7 0 Calma 5 Sur 0 -- -- 56
2019-07-26 09:00:00 19.6 0 Calma 4 Sudeste 0 -- -- 61
2019-07-26 08:00:00 16 2 Oeste 9 Norte 0 -- -- 66
2019-07-26 07:00:00 15.7 6 Noroeste 12 Noroeste 0 -- -- 62
2019-07-26 06:00:00 15 2 Sudoeste 9 Noroeste 0 -- -- 67
2019-07-26 05:00:00 15.5 3 Este 12 Noroeste 0 -- -- 66
2019-07-26 04:00:00 15.8 5 Noroeste 11 Noroeste 0 -- -- 65
2019-07-26 03:00:00 16.3 5 Noroeste 9 Norte 0 -- -- 63
2019-07-26 02:00:00 16.8 0 Calma 9 Noroeste 0 -- -- 62
2019-07-26 01:00:00 17.7 4 Noroeste 14 Noroeste 0 -- -- 64
2019-07-26 00:00:00 18.7 7 Noroeste 13 Noroeste 0 -- -- 65
2019-07-25 23:00:00 20 5 Noroeste 11 Noroeste 0 -- -- 63
2019-07-25 22:00:00 22.3 6 Noroeste 18 Noroeste 0 -- -- 57
2019-07-25 21:00:00 24.8 9 Noroeste 30 Oeste 0 -- -- 49
2019-07-25 20:00:00 27.3 10 Sudoeste 24 Sudoeste 0 -- -- 45
2019-07-25 19:00:00 29.6 5 Sur 21 Este 0 -- -- 41
2019-07-25 18:00:00 30.2 10 Este 28 Este 0 -- -- 34
2019-07-25 17:00:00 30.5 6 Sur 26 Este 0 -- -- 31
2019-07-25 16:00:00 31 10 Sudeste 22 Este 0 -- -- 33
2019-07-25 15:00:00 30.3 8 Este 22 Este 0 -- -- 34
2019-07-25 14:00:00 29.6 10 Sudeste 23 Este 0 -- -- 34
2019-07-25 13:00:00 28.6 10 Este 21 Este 0 -- -- 39
2019-07-25 12:00:00 27.5 13 Este 21 Este 0 -- -- 43
2019-07-25 11:00:00 25.6 6 Sudeste 13 Este 0 -- -- 50
2019-07-25 10:00:00 23.2 4 Sudeste 10 Sudeste 0 -- -- 58
2019-07-25 09:00:00 20.6 0 Calma 3 Sur 0 -- -- 68
2019-07-25 08:00:00 17.7 0 Calma 12 Norte 0 -- -- 73
2019-07-25 07:00:00 16.9 5 Noroeste 12 Noroeste 0 -- -- 72
2019-07-25 06:00:00 16.9 6 Noroeste 13 Noroeste 0 -- -- 74
2019-07-25 05:00:00 17.3 2 Este 11 Noroeste 0 -- -- 73
2019-07-25 04:00:00 17.5 5 Noroeste 10 Noroeste 0 -- -- 73
2019-07-25 03:00:00 18.2 3 Noroeste 9 Oeste 0 -- -- 72
2019-07-25 02:00:00 18.8 0 Calma 9 Noroeste 0 -- -- 73
2019-07-25 01:00:00 19.6 6 Noroeste 10 Noroeste 0 -- -- 75
2019-07-25 00:00:00 20.7 2 Noroeste 13 Noroeste 0 -- -- 76
2019-07-24 23:00:00 21.5 7 Noroeste 12 Oeste 0 -- -- 75
2019-07-24 22:00:00 22.9 4 Noroeste 8 Noroeste 0 -- -- 70
2019-07-24 21:00:00 24.7 2 Noroeste 8 Noroeste 0 -- -- 65
2019-07-24 20:00:00 27.2 4 Noroeste 15 Noroeste 0 -- -- 51
2019-07-24 19:00:00 27.7 10 Noroeste 15 Noroeste 0 -- -- 48
2019-07-24 18:00:00 28.8 3 Oeste 12 Este 0 -- -- 41
2019-07-24 17:00:00 27.3 13 Este 34 Este 0 -- -- 45
2019-07-24 16:00:00 31.3 16 Este 31 Este 0 -- -- 38
2019-07-24 15:00:00 31.1 17 Este 30 Este 0 -- -- 42
2019-07-24 14:00:00 30.4 13 Este 26 Este 0 -- -- 44
2019-07-24 13:00:00 29.8 14 Este 23 Este 0 -- -- 46
2019-07-24 12:00:00 28.7 9 Este 19 Este 0 -- -- 46
2019-07-24 11:00:00 26.4 8 Sudeste 13 Este 0 -- -- 50
2019-07-24 10:00:00 24.3 0 Calma 8 Este 0 -- -- 48
2019-07-24 09:00:00 21.8 2 Sudeste 5 Noroeste 0 -- -- 60
2019-07-24 08:00:00 19.1 3 Nordeste 10 Noroeste 0 -- -- 56
2019-07-24 07:00:00 18.1 4 Noroeste 8 Noroeste 0 -- -- 56
2019-07-24 06:00:00 19 2 Este 10 Norte 0 -- -- 56
2019-07-24 05:00:00 18.1 0 Calma 6 Oeste 0 -- -- 59
2019-07-24 04:00:00 18 3 Noroeste 7 Noroeste 0 -- -- 58
2019-07-24 03:00:00 18.2 2 Norte 5 Noroeste 0 -- -- 66
2019-07-24 02:00:00 18.4 3 Noroeste 7 Noroeste 0 -- -- 65
2019-07-24 01:00:00 19.1 2 Noroeste 9 Noroeste 0 -- -- 66
2019-07-24 00:00:00 20.3 3 Noroeste 16 Noroeste 0 -- -- 64
2019-07-23 23:00:00 21.4 8 Noroeste 14 Oeste 0 -- -- 64
2019-07-23 22:00:00 23.3 5 Norte 10 Noroeste 0 -- -- 62
2019-07-23 21:00:00 26.2 0 Calma 9 Este 0 -- -- 56
2019-07-23 20:00:00 28.5 5 Sudeste 19 Este 0 -- -- 50
2019-07-23 19:00:00 29.7 13 Este 26 Este 0 -- -- 46
2019-07-23 18:00:00 31 14 Este 27 Este 0 -- -- 39
2019-07-23 17:00:00 31.6 7 Sudeste 29 Este 0 -- -- 34
2019-07-23 16:00:00 32.4 11 Oeste 22 Sudoeste 0 -- -- 27
2019-07-23 15:00:00 32.8 10 Este 27 Este 0 -- -- 32
2019-07-23 14:00:00 31.9 8 Sudeste 20 Este 0 -- -- 36
2019-07-23 13:00:00 31 11 Este 22 Este 0 -- -- 37
2019-07-23 12:00:00 29.9 10 Este 21 Sudeste 0 -- -- 38
2019-07-23 11:00:00 27.3 3 Sur 6 Sudeste 0 -- -- 48
2019-07-23 10:00:00 24.3 3 Sur 6 Sudeste 0 -- -- 59
2019-07-23 09:00:00 21.8 2 Sudeste 4 Sudeste 0 -- -- 59
2019-07-23 08:00:00 18.6 0 Calma 3 Norte 0 -- -- 58
2019-07-23 07:00:00 17.7 0 Calma 6 Este 0 -- -- 59
2019-07-23 06:00:00 17.9 2 Este 5 Este 0 -- -- 61
2019-07-23 05:00:00 17.4 0 Calma 4 Este 0 -- -- 64
2019-07-23 04:00:00 17.5 0 Calma 3 Este 0 -- -- 65
2019-07-23 03:00:00 17.8 0 Calma 4 Este 0 -- -- 64
2019-07-23 02:00:00 18.4 2 Norte 8 Noroeste 0 -- -- 59
2019-07-23 01:00:00 19 0 Calma 10 Noroeste 0 -- -- 65
2019-07-23 00:00:00 19.9 5 Noroeste 15 Noroeste 0 -- -- 65
2019-07-22 23:00:00 21.1 6 Noroeste 11 Noroeste 0 -- -- 65
2019-07-22 22:00:00 22.9 5 Noroeste 12 Noroeste 0 -- -- 64
2019-07-22 21:00:00 25.6 2 Este 8 Noroeste 0 -- -- 62
2019-07-22 20:00:00 27.7 7 Este 21 Este 0 -- -- 53
2019-07-22 19:00:00 29.3 10 Este 23 Este 0 -- -- 49
2019-07-22 18:00:00 30.7 9 Este 23 Este 0 -- -- 45
2019-07-22 17:00:00 32.1 8 Sudeste 25 Sudeste 0 -- -- 36
2019-07-22 16:00:00 31.8 12 Este 31 Este 0 -- -- 36
2019-07-22 15:00:00 31.2 10 Este 24 Este 0 -- -- 38
2019-07-22 14:00:00 30.5 6 Sudeste 22 Este 0 -- -- 41
2019-07-22 13:00:00 29.5 12 Este 24 Este 0 -- -- 44
2019-07-22 12:00:00 28.4 14 Este 22 Este 0 -- -- 45
2019-07-22 11:00:00 26.5 7 Este 13 Este 0 -- -- 53
2019-07-22 10:00:00 23.2 0 Calma 9 Este 0 -- -- 60
2019-07-22 09:00:00 19.7 0 Calma 5 Este 0 -- -- 66
2019-07-22 08:00:00 17.9 3 Oeste 7 Noroeste 0 -- -- 68
2019-07-22 07:00:00 16.8 4 Noroeste 8 Norte 0 -- -- 65
2019-07-22 06:00:00 16.5 2 Oeste 5 Noroeste 0 -- -- 71
2019-07-22 05:00:00 17.1 0 Calma 12 Noroeste 0 -- -- 75
2019-07-22 04:00:00 17.1 0 Calma 7 Norte 0 -- -- 76
2019-07-22 03:00:00 17.7 3 Noroeste 10 Norte 0 -- -- 74
2019-07-22 02:00:00 18.1 4 Noroeste 9 Norte 0 -- -- 76
2019-07-22 01:00:00 18.9 2 Noroeste 7 Noroeste 0 -- -- 77
2019-07-22 00:00:00 19.7 5 Noroeste 14 Noroeste 0 -- -- 75
2019-07-21 23:00:00 20.4 5 Noroeste 9 Noroeste 0 -- -- 78
2019-07-21 22:00:00 22.3 6 Norte 17 Nordeste 0 -- -- 72
2019-07-21 21:00:00 24.4 7 Este 19 Este 0 -- -- 64
2019-07-21 20:00:00 26.5 6 Este 22 Sudoeste 0 -- -- 60
2019-07-21 19:00:00 28.9 11 Sudoeste 23 Oeste 0 -- -- 45
2019-07-21 18:00:00 29.9 7 Sudoeste 21 Sudoeste 0 -- -- 42
2019-07-21 17:00:00 30.1 9 Sudoeste 21 Sudeste 0 -- -- 42
2019-07-21 16:00:00 29.7 9 Sudeste 27 Este 0 -- -- 44
2019-07-21 15:00:00 29.5 10 Este 24 Este 0 -- -- 44
2019-07-21 14:00:00 28.7 14 Este 22 Este 0 -- -- 46
2019-07-21 13:00:00 27.5 14 Este 24 Este 0 -- -- 51
2019-07-21 12:00:00 26.4 9 Sudeste 17 Este 0 -- -- 57
2019-07-21 11:00:00 24.1 6 Sudeste 12 Sudeste 0 -- -- 58
2019-07-21 10:00:00 21.4 3 Sur 8 Este 0 -- -- 64
2019-07-21 09:00:00 18.3 0 Calma 5 Nordeste 0 -- -- 76
2019-07-21 08:00:00 15.5 0 Calma 6 Noroeste 0 -- -- 78
2019-07-21 07:00:00 15.3 3 Noroeste 12 Oeste 0 -- -- 79
2019-07-21 06:00:00 15.6 4 Noroeste 12 Noroeste 0 -- -- 81
2019-07-21 05:00:00 16.1 8 Noroeste 12 Noroeste 0 -- -- 83
2019-07-21 04:00:00 16.4 0 Calma 13 Noroeste 0 -- -- 87
2019-07-21 03:00:00 16.7 4 Noroeste 12 Noroeste 0 -- -- 86
2019-07-21 02:00:00 17.2 4 Noroeste 10 Noroeste 0 -- -- 88
2019-07-21 01:00:00 18 5 Noroeste 12 Noroeste 0 -- -- 86
2019-07-21 00:00:00 18.8 5 Noroeste 10 Oeste 0 -- -- 85